createdAt,value
2022-07-25T00:04:51.439Z,7.27
2022-07-25T00:09:53.094Z,7.65
2022-07-25T00:14:54.439Z,7.35
2022-07-25T00:19:55.818Z,7.90
2022-07-25T00:24:57.227Z,7.47
2022-07-25T00:29:58.527Z,8.10
2022-07-25T00:34:59.813Z,7.70
2022-07-25T00:40:01.218Z,7.70
2022-07-25T00:45:02.612Z,7.80
2022-07-25T00:50:04.625Z,8.40
2022-07-25T00:55:06.277Z,7.83
2022-07-25T01:00:09.483Z,7.75
2022-07-25T01:05:11.214Z,7.80
2022-07-25T01:10:13.016Z,8.10
2022-07-25T01:15:15.605Z,7.95
2022-07-25T01:20:18.233Z,8.13
2022-07-25T01:25:19.901Z,7.90
2022-07-25T01:30:21.544Z,7.77
2022-07-25T01:35:23.097Z,7.82
2022-07-25T01:40:24.499Z,7.63
2022-07-25T01:45:25.850Z,7.57
2022-07-25T01:50:27.247Z,7.95
2022-07-25T01:55:28.554Z,8.00
2022-07-25T02:00:31.792Z,7.73
2022-07-25T02:05:33.089Z,7.70
2022-07-25T02:10:34.414Z,7.65
2022-07-25T02:15:36.468Z,8.33
2022-07-25T02:20:37.806Z,8.70
2022-07-25T02:25:39.159Z,7.75
2022-07-25T02:30:41.263Z,8.45
2022-07-25T02:35:42.611Z,7.90
2022-07-25T02:40:43.901Z,8.35
2022-07-25T02:45:45.737Z,7.97
2022-07-25T02:50:47.144Z,7.87
2022-07-25T02:55:48.527Z,7.95
2022-07-25T03:00:49.882Z,7.88
2022-07-25T03:05:51.225Z,7.68
2022-07-25T03:10:52.737Z,8.20
2022-07-25T03:15:54.034Z,8.00
2022-07-25T03:20:55.375Z,7.93
2022-07-25T03:25:57.177Z,8.37
2022-07-25T03:30:58.497Z,8.77
2022-07-25T03:35:59.814Z,8.40
2022-07-25T03:41:01.312Z,7.83
2022-07-25T03:46:02.740Z,8.00
2022-07-25T03:51:07.114Z,7.55
2022-07-25T03:56:08.712Z,7.70
2022-07-25T04:01:10.700Z,7.87
2022-07-25T04:06:12.074Z,7.85
2022-07-25T04:11:13.359Z,8.55
2022-07-25T04:16:14.950Z,8.33
2022-07-25T04:21:24.710Z,8.48
2022-07-25T04:26:26.144Z,8.13
2022-07-25T04:31:27.542Z,8.23
2022-07-25T04:36:29.370Z,7.85
2022-07-25T04:41:30.869Z,8.70
2022-07-25T04:46:32.226Z,8.53
2022-07-25T04:51:33.522Z,8.43
2022-07-25T04:56:34.955Z,7.95
2022-07-25T05:01:36.304Z,8.73
2022-07-25T05:06:37.903Z,8.33
2022-07-25T05:11:43.682Z,7.80
2022-07-25T05:16:48.136Z,8.60
2022-07-25T05:21:49.481Z,8.03
2022-07-25T05:26:50.917Z,8.10
2022-07-25T05:31:52.271Z,8.40
2022-07-25T05:36:53.589Z,8.60
2022-07-25T05:41:54.956Z,8.43
2022-07-25T05:46:56.479Z,9.10
2022-07-25T05:51:57.965Z,8.90
2022-07-25T05:56:59.401Z,8.90
2022-07-25T06:02:01.362Z,9.20
2022-07-25T06:07:02.727Z,8.43
2022-07-25T06:12:04.208Z,7.70
2022-07-25T06:17:05.567Z,8.02
2022-07-25T06:22:09.294Z,7.85
2022-07-25T06:27:10.797Z,8.23
2022-07-25T06:32:12.133Z,8.30
2022-07-25T06:37:13.483Z,8.30
2022-07-25T06:42:14.785Z,8.38
2022-07-25T06:47:16.115Z,7.97
2022-07-25T06:52:17.486Z,7.88
2022-07-25T06:57:18.881Z,8.27
2022-07-25T07:02:20.217Z,8.70
2022-07-25T07:07:21.534Z,8.23
2022-07-25T07:12:22.819Z,8.50
2022-07-25T07:17:24.159Z,7.77
2022-07-25T07:22:25.457Z,8.50
2022-07-25T07:27:26.761Z,8.60
2022-07-25T07:32:28.075Z,8.68
2022-07-25T07:37:33.690Z,8.80
2022-07-25T07:42:39.043Z,9.38
2022-07-25T07:47:40.406Z,9.40
2022-07-25T07:52:42.277Z,9.00
2022-07-25T07:57:43.586Z,9.35
2022-07-25T08:02:45.610Z,9.18
2022-07-25T08:07:46.977Z,9.70
2022-07-25T08:12:48.686Z,9.17
2022-07-25T08:17:50.959Z,8.77
2022-07-25T08:22:56.364Z,9.10
2022-07-25T08:27:58.892Z,9.00
2022-07-25T08:33:01.295Z,9.10
2022-07-25T08:38:03.716Z,8.68
2022-07-25T08:43:05.122Z,9.53
2022-07-25T08:48:06.581Z,9.13
2022-07-25T08:53:32.010Z,9.20
2022-07-25T08:58:29.320Z,9.10
2022-07-25T09:03:30.638Z,9.10
2022-07-25T09:08:31.993Z,9.20
2022-07-25T09:13:38.468Z,9.10
2022-07-25T09:18:43.061Z,9.33
2022-07-25T09:23:44.435Z,8.77
2022-07-25T09:28:47.651Z,8.60
2022-07-25T09:33:56.996Z,8.87
2022-07-25T09:39:04.598Z,8.65
2022-07-25T09:44:24.185Z,8.73
2022-07-25T09:49:26.625Z,8.07
2022-07-25T09:54:28.250Z,7.37
2022-07-25T09:59:29.577Z,7.97
2022-07-25T10:04:36.601Z,7.80
2022-07-25T10:09:50.967Z,7.23
2022-07-25T10:15:04.495Z,8.10
2022-07-25T10:20:07.092Z,7.13
2022-07-25T10:25:13.440Z,7.57
2022-07-25T10:30:23.247Z,7.75
2022-07-25T10:35:25.854Z,7.55
2022-07-25T10:40:35.127Z,7.63
2022-07-25T10:45:43.926Z,7.37
2022-07-25T10:51:12.585Z,7.30
2022-07-25T10:56:13.897Z,6.93
2022-07-25T11:01:19.575Z,7.37
2022-07-25T11:06:40.349Z,7.88
2022-07-25T11:11:47.966Z,6.55
2022-07-25T11:16:51.277Z,7.13
2022-07-25T11:21:54.509Z,7.20
2022-07-25T11:26:55.837Z,7.10
2022-07-25T11:31:58.666Z,7.17
2022-07-25T11:37:01.469Z,7.10
2022-07-25T11:42:07.570Z,7.18
2022-07-25T11:47:21.493Z,7.60
2022-07-25T11:52:33.002Z,6.97
2022-07-25T11:57:36.099Z,6.85
2022-07-25T12:02:37.478Z,6.80
2022-07-25T12:07:46.219Z,7.40
2022-07-25T12:12:48.718Z,7.32
2022-07-25T12:17:51.256Z,6.70
2022-07-25T12:22:53.950Z,7.40
2022-07-25T12:27:55.732Z,6.80
2022-07-25T12:32:57.783Z,7.00
2022-07-25T12:37:59.553Z,7.15
2022-07-25T12:43:01.114Z,7.00
2022-07-25T12:48:02.488Z,7.60
2022-07-25T12:53:04.480Z,7.43
2022-07-25T12:58:05.852Z,6.90
2022-07-25T13:03:07.146Z,6.80
2022-07-25T13:08:08.531Z,7.10
2022-07-25T13:13:10.134Z,6.90
2022-07-25T13:18:11.523Z,6.63
2022-07-25T13:23:16.293Z,6.40
2022-07-25T13:28:20.171Z,7.13
2022-07-25T13:33:22.357Z,7.23
2022-07-25T13:38:23.647Z,7.50
2022-07-25T13:43:24.982Z,6.70
2022-07-25T13:48:29.927Z,7.27
2022-07-25T13:53:32.790Z,7.38
2022-07-25T13:58:34.153Z,6.88
2022-07-25T14:03:36.795Z,6.83
2022-07-25T14:08:40.884Z,7.80
2022-07-25T14:13:43.601Z,7.25
2022-07-25T14:18:44.941Z,7.50
2022-07-25T14:23:46.344Z,7.60
2022-07-25T14:28:47.669Z,7.95
2022-07-25T14:33:48.993Z,7.43
2022-07-25T14:38:50.505Z,7.83
2022-07-25T14:43:51.789Z,7.10
2022-07-25T14:48:54.086Z,7.43
2022-07-25T14:53:55.471Z,7.23
2022-07-25T14:58:57.157Z,6.40
2022-07-25T15:03:58.541Z,7.35
2022-07-25T15:08:59.845Z,6.65
2022-07-25T15:14:01.335Z,7.47
2022-07-25T15:19:18.219Z,7.45
2022-07-25T15:24:19.595Z,7.28
2022-07-25T15:29:20.907Z,7.40
2022-07-25T15:34:22.309Z,6.85
2022-07-25T15:39:24.392Z,7.40
2022-07-25T15:44:25.719Z,7.13
2022-07-25T15:49:27.079Z,7.13
2022-07-25T15:54:29.636Z,7.32
2022-07-25T15:59:31.217Z,8.38
2022-07-25T16:04:32.528Z,8.33
2022-07-25T16:09:34.098Z,6.43
2022-07-25T16:14:35.427Z,7.07
2022-07-25T16:19:37.008Z,6.60
2022-07-25T16:24:38.302Z,6.10
2022-07-25T16:29:39.929Z,5.50
2022-07-25T16:34:41.514Z,5.13
2022-07-25T16:39:42.910Z,5.60
2022-07-25T16:44:44.348Z,5.28
2022-07-25T16:49:45.647Z,5.60
2022-07-25T16:54:46.938Z,4.83
2022-07-25T16:59:48.346Z,5.35
2022-07-25T17:04:49.774Z,6.38
2022-07-25T17:09:51.330Z,5.20
2022-07-25T17:14:52.712Z,5.80
2022-07-25T17:19:59.455Z,5.85
2022-07-25T17:25:01.341Z,4.97
2022-07-25T17:30:03.700Z,5.27
2022-07-25T17:35:05.274Z,4.97
2022-07-25T17:40:06.925Z,4.68
2022-07-25T17:45:08.496Z,4.23
2022-07-25T17:50:10.398Z,4.00
2022-07-25T17:55:12.281Z,3.80
2022-07-25T18:00:14.358Z,3.47
2022-07-25T18:05:15.798Z,3.40
2022-07-25T18:10:17.794Z,3.83
2022-07-25T18:15:19.286Z,3.57
2022-07-25T18:20:20.646Z,3.60
2022-07-25T18:25:21.952Z,3.70
2022-07-25T18:30:28.728Z,3.60
2022-07-25T18:35:30.533Z,3.70
2022-07-25T18:40:32.050Z,3.38
2022-07-25T18:45:35.528Z,3.15
2022-07-25T18:50:37.001Z,3.47
2022-07-25T18:55:38.343Z,2.75
2022-07-25T19:00:39.652Z,2.33
2022-07-25T19:05:41.196Z,2.53
2022-07-25T19:10:42.572Z,2.30
2022-07-25T19:15:44.029Z,2.38
2022-07-25T19:20:45.743Z,2.33
2022-07-25T19:25:47.878Z,2.27
2022-07-25T19:30:49.348Z,2.63
2022-07-25T19:35:50.850Z,2.58
2022-07-25T19:40:54.104Z,2.37
2022-07-25T19:45:55.541Z,2.25
2022-07-25T19:50:57.094Z,2.88
2022-07-25T19:55:58.468Z,2.30
2022-07-25T20:00:59.911Z,2.33
2022-07-25T20:06:06.068Z,2.53
2022-07-25T20:11:10.272Z,2.80
2022-07-25T20:16:11.710Z,2.37
2022-07-25T20:21:13.391Z,2.97
2022-07-25T20:26:15.038Z,2.60
2022-07-25T20:31:17.327Z,2.37
2022-07-25T20:36:19.016Z,2.80
2022-07-25T20:41:20.323Z,2.45
2022-07-25T20:46:22.290Z,2.50
2022-07-25T20:51:23.706Z,2.33
2022-07-25T20:56:25.087Z,2.40
2022-07-25T21:01:26.500Z,2.45
2022-07-25T21:06:29.125Z,2.40
2022-07-25T21:11:32.596Z,2.58
2022-07-25T21:16:34.073Z,2.38
2022-07-25T21:21:36.208Z,2.40
2022-07-25T21:26:39.241Z,2.38
2022-07-25T21:31:40.647Z,2.47
2022-07-25T21:36:41.994Z,2.30
2022-07-25T21:41:43.911Z,2.30
2022-07-25T21:46:45.372Z,2.20
2022-07-25T21:51:46.810Z,1.95
2022-07-25T21:56:48.216Z,2.30
2022-07-25T22:01:49.555Z,2.17
2022-07-25T22:06:50.979Z,2.20
2022-07-25T22:11:53.898Z,1.97
2022-07-25T22:16:55.307Z,2.15
2022-07-25T22:21:56.749Z,2.13
2022-07-25T22:26:58.042Z,1.90
2022-07-25T22:31:59.904Z,2.10
2022-07-25T22:37:01.603Z,2.08
2022-07-25T22:42:02.977Z,1.90
2022-07-25T22:47:04.378Z,2.17
2022-07-25T22:52:07.634Z,2.03
2022-07-25T22:57:08.930Z,1.70
2022-07-25T23:02:10.344Z,1.57
2022-07-25T23:07:12.700Z,1.63
2022-07-25T23:12:14.022Z,1.40
2022-07-25T23:17:19.713Z,1.30
2022-07-25T23:22:21.985Z,1.60
2022-07-25T23:27:23.332Z,1.67
2022-07-25T23:32:24.718Z,1.50
2022-07-25T23:37:26.054Z,1.63
2022-07-25T23:42:27.353Z,1.60
2022-07-25T23:47:39.411Z,1.30
2022-07-25T23:52:41.967Z,1.47
2022-07-25T23:57:43.393Z,1.48
